If you wish to contribute or participate in the discussions about articles you are invited to join SKYbrary as a registered user

 Actions

Ilhéus Jorge Amado Airport

From SKYbrary Wiki

SBIL
Airport
ICAO: SBIL – IATA: IOS
Summary
Name Ilhéus Jorge Amado Airport
Region South America and Caribbean
Territory Brazil BR.gif
Location Ilhéus, Bahia
Serving Ilhéus
Elevation 3.962 m
13 ft3.962 m
Coordinates 14° 48' 54.00" S, 39° 1' 59.99" W
Runways
Designator Length Width Surface ROPS
11/29 1577 m5,173.885 ft
45 m147.638 ft
ASP yes/yes


METAR
Observation SBIL 250700Z 24006KT 9999 FEW020 23/22 Q1013
Station Ilheus Aeroporto
Date/Time 25 May 2019 07:00:00
Wind direction 240°
Wind speed 06 kts
Lowest cloud amount few clouds
Temperature 23°C
Dew point 22°C
Humidity 94%
QNH 1013 hPa
Weather condition n/a

Ilhéus/Bahia-Jorge Amado Airport, is the airport serving Ilhéus, Brazil.

Climatology

Tropical rainforest climate (Köppen climate classification Af)

Maps

Terrain

Loading map...

Airport Layout

Loading map...


Accidents & Serious Incidents at or in vicinity of SBIL

None on SKYbrary